sensor_id;sensor_type;location;lat;lon;timestamp;temperature;humidity
12911;DHT22;6523;49.758;6.120;2022-10-16T00:01:47;13.70;99.90
12911;DHT22;6523;49.758;6.120;2022-10-16T00:04:13;13.80;99.90
12911;DHT22;6523;49.758;6.120;2022-10-16T00:06:39;13.80;99.90
12911;DHT22;6523;49.758;6.120;2022-10-16T00:09:05;13.80;99.90
12911;DHT22;6523;49.758;6.120;2022-10-16T00:11:33;13.80;99.90
12911;DHT22;6523;49.758;6.120;2022-10-16T00:14:00;13.90;99.90
12911;DHT22;6523;49.758;6.120;2022-10-16T00:16:28;13.90;99.90
12911;DHT22;6523;49.758;6.120;2022-10-16T00:18:54;13.80;99.90
12911;DHT22;6523;49.758;6.120;2022-10-16T00:21:23;13.80;99.90
12911;DHT22;6523;49.758;6.120;2022-10-16T00:24:04;13.80;99.90
12911;DHT22;6523;49.758;6.120;2022-10-16T00:26:32;13.80;99.90
12911;DHT22;6523;49.758;6.120;2022-10-16T00:28:58;13.80;99.90
12911;DHT22;6523;49.758;6.120;2022-10-16T00:31:24;13.90;99.90
12911;DHT22;6523;49.758;6.120;2022-10-16T00:33:50;13.90;99.90
12911;DHT22;6523;49.758;6.120;2022-10-16T00:36:18;14.00;99.90
12911;DHT22;6523;49.758;6.120;2022-10-16T00:38:44;14.00;99.90
12911;DHT22;6523;49.758;6.120;2022-10-16T00:41:13;14.00;99.90
12911;DHT22;6523;49.758;6.120;2022-10-16T00:46:20;13.90;99.90
12911;DHT22;6523;49.758;6.120;2022-10-16T00:49:08;13.90;99.90
12911;DHT22;6523;49.758;6.120;2022-10-16T00:51:54;13.90;99.90
12911;DHT22;6523;49.758;6.120;2022-10-16T00:54:26;13.90;99.90
12911;DHT22;6523;49.758;6.120;2022-10-16T00:56:54;13.90;99.90
12911;DHT22;6523;49.758;6.120;2022-10-16T00:59:27;13.90;99.90
12911;DHT22;6523;49.758;6.120;2022-10-16T01:01:54;13.90;99.90
12911;DHT22;6523;49.758;6.120;2022-10-16T01:04:20;13.90;99.90
12911;DHT22;6523;49.758;6.120;2022-10-16T01:06:59;13.90;99.90
12911;DHT22;6523;49.758;6.120;2022-10-16T01:12:36;13.90;99.90
12911;DHT22;6523;49.758;6.120;2022-10-16T01:17:35;13.90;99.90
12911;DHT22;6523;49.758;6.120;2022-10-16T01:20:30;13.90;99.90
12911;DHT22;6523;49.758;6.120;2022-10-16T01:23:21;13.90;99.90
12911;DHT22;6523;49.758;6.120;2022-10-16T01:26:15;13.90;99.90
12911;DHT22;6523;49.758;6.120;2022-10-16T01:28:49;14.10;99.90
12911;DHT22;6523;49.758;6.120;2022-10-16T01:31:19;14.20;99.90
12911;DHT22;6523;49.758;6.120;2022-10-16T01:36:42;14.10;99.90
12911;DHT22;6523;49.758;6.120;2022-10-16T01:39:11;14.10;99.90
12911;DHT22;6523;49.758;6.120;2022-10-16T01:41:43;14.10;99.90
12911;DHT22;6523;49.758;6.120;2022-10-16T01:44:14;14.20;99.90
12911;DHT22;6523;49.758;6.120;2022-10-16T01:46:43;14.20;99.90
12911;DHT22;6523;49.758;6.120;2022-10-16T01:49:11;14.20;99.90
12911;DHT22;6523;49.758;6.120;2022-10-16T01:51:38;14.10;99.90
12911;DHT22;6523;49.758;6.120;2022-10-16T01:54:06;14.10;99.90
12911;DHT22;6523;49.758;6.120;2022-10-16T01:56:33;14.10;99.90
12911;DHT22;6523;49.758;6.120;2022-10-16T01:59:11;14.10;99.90
12911;DHT22;6523;49.758;6.120;2022-10-16T02:01:45;14.10;99.90
12911;DHT22;6523;49.758;6.120;2022-10-16T02:04:19;14.10;99.90
12911;DHT22;6523;49.758;6.120;2022-10-16T02:06:45;14.10;99.90
12911;DHT22;6523;49.758;6.120;2022-10-16T02:09:11;14.10;99.90
12911;DHT22;6523;49.758;6.120;2022-10-16T02:11:37;14.00;99.90
12911;DHT22;6523;49.758;6.120;2022-10-16T02:14:05;14.00;99.90
12911;DHT22;6523;49.758;6.120;2022-10-16T02:16:49;14.00;99.90
12911;DHT22;6523;49.758;6.120;2022-10-16T02:19:16;14.00;99.90
12911;DHT22;6523;49.758;6.120;2022-10-16T02:21:58;13.90;99.90
12911;DHT22;6523;49.758;6.120;2022-10-16T02:24:42;14.00;99.90
12911;DHT22;6523;49.758;6.120;2022-10-16T02:27:21;14.00;99.90
12911;DHT22;6523;49.758;6.120;2022-10-16T02:29:54;14.00;99.90
12911;DHT22;6523;49.758;6.120;2022-10-16T02:32:25;14.00;99.90
12911;DHT22;6523;49.758;6.120;2022-10-16T02:34:52;14.00;99.90
12911;DHT22;6523;49.758;6.120;2022-10-16T02:37:19;14.00;99.90
12911;DHT22;6523;49.758;6.120;2022-10-16T02:39:45;14.00;99.90
12911;DHT22;6523;49.758;6.120;2022-10-16T02:42:14;14.00;99.90
12911;DHT22;6523;49.758;6.120;2022-10-16T02:44:40;14.00;99.90
12911;DHT22;6523;49.758;6.120;2022-10-16T02:47:06;14.00;99.90
12911;DHT22;6523;49.758;6.120;2022-10-16T02:49:31;14.00;99.90
12911;DHT22;6523;49.758;6.120;2022-10-16T02:51:57;14.00;99.90
12911;DHT22;6523;49.758;6.120;2022-10-16T02:54:23;14.00;99.90
12911;DHT22;6523;49.758;6.120;2022-10-16T02:56:49;14.00;99.90
12911;DHT22;6523;49.758;6.120;2022-10-16T02:59:15;13.90;99.90
12911;DHT22;6523;49.758;6.120;2022-10-16T03:01:40;13.90;99.90
12911;DHT22;6523;49.758;6.120;2022-10-16T03:04:06;14.00;99.90
12911;DHT22;6523;49.758;6.120;2022-10-16T03:06:31;14.00;99.90
12911;DHT22;6523;49.758;6.120;2022-10-16T03:08:57;14.00;99.90
12911;DHT22;6523;49.758;6.120;2022-10-16T03:11:22;14.00;99.90
12911;DHT22;6523;49.758;6.120;2022-10-16T03:13:48;14.00;99.90
12911;DHT22;6523;49.758;6.120;2022-10-16T03:16:13;13.90;99.90
12911;DHT22;6523;49.758;6.120;2022-10-16T03:18:39;14.00;99.90
12911;DHT22;6523;49.758;6.120;2022-10-16T03:21:05;14.00;99.90
12911;DHT22;6523;49.758;6.120;2022-10-16T03:23:30;14.00;99.90
12911;DHT22;6523;49.758;6.120;2022-10-16T03:25:56;14.00;99.90
12911;DHT22;6523;49.758;6.120;2022-10-16T03:28:21;14.00;99.90
12911;DHT22;6523;49.758;6.120;2022-10-16T03:30:47;13.90;99.90
12911;DHT22;6523;49.758;6.120;2022-10-16T03:33:12;13.90;99.90
12911;DHT22;6523;49.758;6.120;2022-10-16T03:35:38;13.90;99.90
12911;DHT22;6523;49.758;6.120;2022-10-16T03:38:04;13.90;99.90
12911;DHT22;6523;49.758;6.120;2022-10-16T03:40:29;13.90;99.90
12911;DHT22;6523;49.758;6.120;2022-10-16T03:42:57;13.90;99.90
12911;DHT22;6523;49.758;6.120;2022-10-16T03:45:23;13.90;99.90
12911;DHT22;6523;49.758;6.120;2022-10-16T03:47:49;13.90;99.90
12911;DHT22;6523;49.758;6.120;2022-10-16T03:50:15;13.90;99.90
12911;DHT22;6523;49.758;6.120;2022-10-16T03:52:40;13.90;99.90
12911;DHT22;6523;49.758;6.120;2022-10-16T03:55:06;13.90;99.90
12911;DHT22;6523;49.758;6.120;2022-10-16T03:57:32;13.90;99.90
12911;DHT22;6523;49.758;6.120;2022-10-16T03:59:58;13.90;99.90
12911;DHT22;6523;49.758;6.120;2022-10-16T04:02:24;13.90;99.90
12911;DHT22;6523;49.758;6.120;2022-10-16T04:04:49;13.90;99.90
12911;DHT22;6523;49.758;6.120;2022-10-16T04:07:15;13.90;99.90
12911;DHT22;6523;49.758;6.120;2022-10-16T04:09:41;13.90;99.90
12911;DHT22;6523;49.758;6.120;2022-10-16T04:12:07;13.80;99.90
12911;DHT22;6523;49.758;6.120;2022-10-16T04:14:32;13.80;99.90
12911;DHT22;6523;49.758;6.120;2022-10-16T04:16:58;13.80;99.90
12911;DHT22;6523;49.758;6.120;2022-10-16T04:19:24;13.80;99.90
12911;DHT22;6523;49.758;6.120;2022-10-16T04:21:49;13.80;99.90
12911;DHT22;6523;49.758;6.120;2022-10-16T04:24:15;13.80;99.90
12911;DHT22;6523;49.758;6.120;2022-10-16T04:26:40;13.80;99.90
12911;DHT22;6523;49.758;6.120;2022-10-16T04:29:06;13.80;99.90
12911;DHT22;6523;49.758;6.120;2022-10-16T04:31:32;13.80;99.90
12911;DHT22;6523;49.758;6.120;2022-10-16T04:33:58;13.80;99.90
12911;DHT22;6523;49.758;6.120;2022-10-16T04:36:24;13.80;99.90
12911;DHT22;6523;49.758;6.120;2022-10-16T04:38:49;13.80;99.90
12911;DHT22;6523;49.758;6.120;2022-10-16T04:41:15;13.80;99.90
12911;DHT22;6523;49.758;6.120;2022-10-16T04:43:40;13.80;99.90
12911;DHT22;6523;49.758;6.120;2022-10-16T04:46:06;13.80;99.90
12911;DHT22;6523;49.758;6.120;2022-10-16T04:48:32;13.80;99.90
12911;DHT22;6523;49.758;6.120;2022-10-16T04:50:57;13.80;99.90
12911;DHT22;6523;49.758;6.120;2022-10-16T04:53:23;13.80;99.90
12911;DHT22;6523;49.758;6.120;2022-10-16T04:55:49;13.80;99.90
12911;DHT22;6523;49.758;6.120;2022-10-16T04:58:14;13.80;99.90
12911;DHT22;6523;49.758;6.120;2022-10-16T05:00:40;13.70;99.90
12911;DHT22;6523;49.758;6.120;2022-10-16T05:03:06;13.70;99.90
12911;DHT22;6523;49.758;6.120;2022-10-16T05:05:34;13.70;99.90
12911;DHT22;6523;49.758;6.120;2022-10-16T05:08:00;13.80;99.90
12911;DHT22;6523;49.758;6.120;2022-10-16T05:10:25;13.80;99.90
12911;DHT22;6523;49.758;6.120;2022-10-16T05:12:51;13.90;99.90
12911;DHT22;6523;49.758;6.120;2022-10-16T05:15:17;13.80;99.90
12911;DHT22;6523;49.758;6.120;2022-10-16T05:17:42;13.80;99.90
12911;DHT22;6523;49.758;6.120;2022-10-16T05:20:08;13.90;99.90
12911;DHT22;6523;49.758;6.120;2022-10-16T05:22:34;13.90;99.90
12911;DHT22;6523;49.758;6.120;2022-10-16T05:24:59;13.90;99.90
12911;DHT22;6523;49.758;6.120;2022-10-16T05:27:25;13.80;99.90
12911;DHT22;6523;49.758;6.120;2022-10-16T05:29:50;13.90;99.90
12911;DHT22;6523;49.758;6.120;2022-10-16T05:32:17;13.80;99.90
12911;DHT22;6523;49.758;6.120;2022-10-16T05:34:43;13.80;99.90
12911;DHT22;6523;49.758;6.120;2022-10-16T05:37:09;13.80;99.90
12911;DHT22;6523;49.758;6.120;2022-10-16T05:39:36;13.90;99.90
12911;DHT22;6523;49.758;6.120;2022-10-16T05:42:02;13.80;99.90
12911;DHT22;6523;49.758;6.120;2022-10-16T05:44:28;13.80;99.90
12911;DHT22;6523;49.758;6.120;2022-10-16T05:46:53;13.80;99.90
12911;DHT22;6523;49.758;6.120;2022-10-16T05:49:19;13.90;99.90
12911;DHT22;6523;49.758;6.120;2022-10-16T05:51:44;13.90;99.90
12911;DHT22;6523;49.758;6.120;2022-10-16T05:54:10;13.80;99.90
12911;DHT22;6523;49.758;6.120;2022-10-16T05:56:36;13.90;99.90
12911;DHT22;6523;49.758;6.120;2022-10-16T05:59:03;13.90;99.90
12911;DHT22;6523;49.758;6.120;2022-10-16T06:01:29;13.90;99.90
12911;DHT22;6523;49.758;6.120;2022-10-16T06:03:56;13.90;99.90
12911;DHT22;6523;49.758;6.120;2022-10-16T06:06:24;13.90;99.90
12911;DHT22;6523;49.758;6.120;2022-10-16T06:08:51;13.90;99.90
12911;DHT22;6523;49.758;6.120;2022-10-16T06:11:29;13.90;99.90
12911;DHT22;6523;49.758;6.120;2022-10-16T06:13:56;13.90;99.90
12911;DHT22;6523;49.758;6.120;2022-10-16T06:16:24;13.90;99.90
12911;DHT22;6523;49.758;6.120;2022-10-16T06:18:53;13.90;99.90
12911;DHT22;6523;49.758;6.120;2022-10-16T06:21:21;13.90;99.90
12911;DHT22;6523;49.758;6.120;2022-10-16T06:23:48;13.90;99.90
12911;DHT22;6523;49.758;6.120;2022-10-16T06:26:16;13.90;99.90
12911;DHT22;6523;49.758;6.120;2022-10-16T06:28:42;13.90;99.90
12911;DHT22;6523;49.758;6.120;2022-10-16T06:31:09;14.00;99.90
12911;DHT22;6523;49.758;6.120;2022-10-16T06:33:35;14.00;99.90
12911;DHT22;6523;49.758;6.120;2022-10-16T06:36:13;14.00;99.90
12911;DHT22;6523;49.758;6.120;2022-10-16T06:38:40;14.10;99.90
12911;DHT22;6523;49.758;6.120;2022-10-16T06:41:07;14.00;99.90
12911;DHT22;6523;49.758;6.120;2022-10-16T06:43:33;14.10;99.90
12911;DHT22;6523;49.758;6.120;2022-10-16T06:46:01;14.10;99.90
12911;DHT22;6523;49.758;6.120;2022-10-16T06:48:28;14.10;99.90
12911;DHT22;6523;49.758;6.120;2022-10-16T06:51:20;14.10;99.90
12911;DHT22;6523;49.758;6.120;2022-10-16T06:53:48;14.10;99.90
12911;DHT22;6523;49.758;6.120;2022-10-16T06:56:26;14.20;99.90
12911;DHT22;6523;49.758;6.120;2022-10-16T06:58:53;14.20;99.90
12911;DHT22;6523;49.758;6.120;2022-10-16T07:01:20;14.30;99.90
12911;DHT22;6523;49.758;6.120;2022-10-16T07:03:47;14.30;99.90
12911;DHT22;6523;49.758;6.120;2022-10-16T07:06:15;14.40;99.90
12911;DHT22;6523;49.758;6.120;2022-10-16T07:08:42;14.40;99.90
12911;DHT22;6523;49.758;6.120;2022-10-16T07:11:14;14.30;99.90
12911;DHT22;6523;49.758;6.120;2022-10-16T07:13:42;14.30;99.90
12911;DHT22;6523;49.758;6.120;2022-10-16T07:16:13;14.30;99.90
12911;DHT22;6523;49.758;6.120;2022-10-16T07:18:39;14.30;99.90
12911;DHT22;6523;49.758;6.120;2022-10-16T07:21:16;14.30;99.90
12911;DHT22;6523;49.758;6.120;2022-10-16T07:23:43;14.30;99.90
12911;DHT22;6523;49.758;6.120;2022-10-16T07:26:09;14.30;99.90
12911;DHT22;6523;49.758;6.120;2022-10-16T07:28:36;14.30;99.90
12911;DHT22;6523;49.758;6.120;2022-10-16T07:31:07;14.30;99.90
12911;DHT22;6523;49.758;6.120;2022-10-16T07:33:34;14.30;99.90
12911;DHT22;6523;49.758;6.120;2022-10-16T07:36:00;14.40;99.90
12911;DHT22;6523;49.758;6.120;2022-10-16T07:38:26;14.50;99.90
12911;DHT22;6523;49.758;6.120;2022-10-16T07:43:24;14.50;99.90
12911;DHT22;6523;49.758;6.120;2022-10-16T07:45:50;14.50;99.90
12911;DHT22;6523;49.758;6.120;2022-10-16T07:48:17;14.60;99.90
12911;DHT22;6523;49.758;6.120;2022-10-16T07:50:43;14.60;99.90
12911;DHT22;6523;49.758;6.120;2022-10-16T07:53:10;14.60;99.90
12911;DHT22;6523;49.758;6.120;2022-10-16T07:55:35;14.70;99.90
12911;DHT22;6523;49.758;6.120;2022-10-16T07:58:01;14.70;99.90
12911;DHT22;6523;49.758;6.120;2022-10-16T08:00:27;14.70;99.90
12911;DHT22;6523;49.758;6.120;2022-10-16T08:02:52;14.70;99.90
12911;DHT22;6523;49.758;6.120;2022-10-16T08:05:18;14.80;99.90
12911;DHT22;6523;49.758;6.120;2022-10-16T08:07:48;14.80;99.90
12911;DHT22;6523;49.758;6.120;2022-10-16T08:10:17;14.90;99.90
12911;DHT22;6523;49.758;6.120;2022-10-16T08:12:43;14.90;99.90
12911;DHT22;6523;49.758;6.120;2022-10-16T08:15:09;15.00;99.90
12911;DHT22;6523;49.758;6.120;2022-10-16T08:17:35;15.00;99.90
12911;DHT22;6523;49.758;6.120;2022-10-16T08:20:00;15.00;99.90
12911;DHT22;6523;49.758;6.120;2022-10-16T08:22:27;15.00;99.90
12911;DHT22;6523;49.758;6.120;2022-10-16T08:24:52;15.10;99.90
12911;DHT22;6523;49.758;6.120;2022-10-16T08:27:18;15.10;99.90
12911;DHT22;6523;49.758;6.120;2022-10-16T08:29:43;15.10;99.90
12911;DHT22;6523;49.758;6.120;2022-10-16T08:32:09;15.20;99.90
12911;DHT22;6523;49.758;6.120;2022-10-16T08:34:34;15.30;99.90
12911;DHT22;6523;49.758;6.120;2022-10-16T08:37:00;15.20;99.90
12911;DHT22;6523;49.758;6.120;2022-10-16T08:39:25;15.20;99.90
12911;DHT22;6523;49.758;6.120;2022-10-16T08:45:19;15.30;99.90
12911;DHT22;6523;49.758;6.120;2022-10-16T08:50:39;15.40;99.90
12911;DHT22;6523;49.758;6.120;2022-10-16T08:53:05;15.50;99.90
12911;DHT22;6523;49.758;6.120;2022-10-16T08:55:50;15.50;99.90
12911;DHT22;6523;49.758;6.120;2022-10-16T09:00:46;15.40;99.90
12911;DHT22;6523;49.758;6.120;2022-10-16T09:06:21;15.40;99.90
12911;DHT22;6523;49.758;6.120;2022-10-16T09:12:31;15.60;99.90
12911;DHT22;6523;49.758;6.120;2022-10-16T09:15:24;15.80;99.90
12911;DHT22;6523;49.758;6.120;2022-10-16T09:18:22;16.10;99.90
12911;DHT22;6523;49.758;6.120;2022-10-16T09:20:51;16.00;99.90
12911;DHT22;6523;49.758;6.120;2022-10-16T09:23:30;16.00;99.90
12911;DHT22;6523;49.758;6.120;2022-10-16T09:25:58;16.10;99.90
12911;DHT22;6523;49.758;6.120;2022-10-16T09:28:24;16.10;99.90
12911;DHT22;6523;49.758;6.120;2022-10-16T09:30:50;16.00;99.90
12911;DHT22;6523;49.758;6.120;2022-10-16T09:33:19;16.00;99.90
12911;DHT22;6523;49.758;6.120;2022-10-16T09:35:51;16.00;99.90
12911;DHT22;6523;49.758;6.120;2022-10-16T09:38:36;16.00;99.90
12911;DHT22;6523;49.758;6.120;2022-10-16T09:41:17;15.90;99.90
12911;DHT22;6523;49.758;6.120;2022-10-16T09:43:55;15.90;99.90
12911;DHT22;6523;49.758;6.120;2022-10-16T09:46:31;15.80;99.90
12911;DHT22;6523;49.758;6.120;2022-10-16T09:49:02;15.90;99.90
12911;DHT22;6523;49.758;6.120;2022-10-16T09:51:36;16.00;99.90
12911;DHT22;6523;49.758;6.120;2022-10-16T09:56:39;16.10;99.90
12911;DHT22;6523;49.758;6.120;2022-10-16T09:59:32;16.10;99.90
12911;DHT22;6523;49.758;6.120;2022-10-16T10:02:02;16.60;99.90
12911;DHT22;6523;49.758;6.120;2022-10-16T10:04:39;17.00;99.90
12911;DHT22;6523;49.758;6.120;2022-10-16T10:07:07;17.10;99.90
12911;DHT22;6523;49.758;6.120;2022-10-16T10:09:43;17.20;99.90
12911;DHT22;6523;49.758;6.120;2022-10-16T10:12:21;17.20;99.90
12911;DHT22;6523;49.758;6.120;2022-10-16T10:14:52;17.30;99.90
12911;DHT22;6523;49.758;6.120;2022-10-16T10:17:21;17.20;99.90
12911;DHT22;6523;49.758;6.120;2022-10-16T10:20:13;17.50;99.90
12911;DHT22;6523;49.758;6.120;2022-10-16T10:22:44;17.50;99.90
12911;DHT22;6523;49.758;6.120;2022-10-16T10:28:13;17.70;99.90
12911;DHT22;6523;49.758;6.120;2022-10-16T10:33:43;17.60;99.90
12911;DHT22;6523;49.758;6.120;2022-10-16T10:36:27;17.50;99.90
12911;DHT22;6523;49.758;6.120;2022-10-16T10:39:15;17.50;99.90
12911;DHT22;6523;49.758;6.120;2022-10-16T10:56:03;17.40;99.90
12911;DHT22;6523;49.758;6.120;2022-10-16T10:58:54;17.50;99.90
12911;DHT22;6523;49.758;6.120;2022-10-16T11:04:23;17.30;99.90
12911;DHT22;6523;49.758;6.120;2022-10-16T11:06:59;17.30;99.90
12911;DHT22;6523;49.758;6.120;2022-10-16T11:09:32;17.20;99.90
12911;DHT22;6523;49.758;6.120;2022-10-16T11:17:25;17.20;99.90
12911;DHT22;6523;49.758;6.120;2022-10-16T11:19:54;17.30;99.90
12911;DHT22;6523;49.758;6.120;2022-10-16T11:25:13;17.20;99.90
12911;DHT22;6523;49.758;6.120;2022-10-16T11:30:30;17.20;99.90
12911;DHT22;6523;49.758;6.120;2022-10-16T11:35:49;17.20;99.90
12911;DHT22;6523;49.758;6.120;2022-10-16T11:38:45;17.30;99.90
12911;DHT22;6523;49.758;6.120;2022-10-16T11:44:06;17.30;99.90
12911;DHT22;6523;49.758;6.120;2022-10-16T11:46:36;17.40;99.90
12911;DHT22;6523;49.758;6.120;2022-10-16T11:49:09;17.70;99.90
12911;DHT22;6523;49.758;6.120;2022-10-16T11:51:48;17.80;99.90
12911;DHT22;6523;49.758;6.120;2022-10-16T11:54:35;17.90;99.90
12911;DHT22;6523;49.758;6.120;2022-10-16T11:57:10;17.80;99.90
12911;DHT22;6523;49.758;6.120;2022-10-16T12:02:54;18.10;99.90
12911;DHT22;6523;49.758;6.120;2022-10-16T12:08:14;18.00;99.90
12911;DHT22;6523;49.758;6.120;2022-10-16T12:10:43;18.10;99.90
12911;DHT22;6523;49.758;6.120;2022-10-16T12:13:38;18.20;99.90
12911;DHT22;6523;49.758;6.120;2022-10-16T12:18:46;18.00;99.90
12911;DHT22;6523;49.758;6.120;2022-10-16T12:21:14;17.80;99.90
12911;DHT22;6523;49.758;6.120;2022-10-16T12:23:50;17.80;99.90
12911;DHT22;6523;49.758;6.120;2022-10-16T12:26:30;17.70;99.90
12911;DHT22;6523;49.758;6.120;2022-10-16T12:31:47;17.70;99.90
12911;DHT22;6523;49.758;6.120;2022-10-16T12:34:21;17.60;99.90
12911;DHT22;6523;49.758;6.120;2022-10-16T12:36:48;17.60;99.90
12911;DHT22;6523;49.758;6.120;2022-10-16T12:39:27;17.50;99.90
12911;DHT22;6523;49.758;6.120;2022-10-16T12:44:48;17.70;99.90
12911;DHT22;6523;49.758;6.120;2022-10-16T12:49:55;17.90;99.90
12911;DHT22;6523;49.758;6.120;2022-10-16T12:54:59;18.10;99.90
12911;DHT22;6523;49.758;6.120;2022-10-16T13:03:03;17.70;99.90
12911;DHT22;6523;49.758;6.120;2022-10-16T13:08:18;17.90;99.90
12911;DHT22;6523;49.758;6.120;2022-10-16T13:11:11;17.90;99.90
12911;DHT22;6523;49.758;6.120;2022-10-16T13:14:15;17.80;99.90
12911;DHT22;6523;49.758;6.120;2022-10-16T13:28:07;18.20;99.90
12911;DHT22;6523;49.758;6.120;2022-10-16T13:30:53;18.20;99.90
12911;DHT22;6523;49.758;6.120;2022-10-16T13:33:30;18.10;99.90
12911;DHT22;6523;49.758;6.120;2022-10-16T13:35:57;18.00;99.90
12911;DHT22;6523;49.758;6.120;2022-10-16T13:38:27;18.00;99.90
12911;DHT22;6523;49.758;6.120;2022-10-16T13:40:58;18.00;99.90
12911;DHT22;6523;49.758;6.120;2022-10-16T13:43:35;17.90;99.90
12911;DHT22;6523;49.758;6.120;2022-10-16T13:46:05;17.80;99.90
12911;DHT22;6523;49.758;6.120;2022-10-16T13:48:32;17.90;99.90
12911;DHT22;6523;49.758;6.120;2022-10-16T13:53:38;17.90;99.90
12911;DHT22;6523;49.758;6.120;2022-10-16T13:56:06;18.10;99.90
12911;DHT22;6523;49.758;6.120;2022-10-16T13:58:32;18.10;99.90
12911;DHT22;6523;49.758;6.120;2022-10-16T14:01:00;18.10;99.90
12911;DHT22;6523;49.758;6.120;2022-10-16T14:03:27;18.00;99.90
12911;DHT22;6523;49.758;6.120;2022-10-16T14:05:55;18.10;99.90
12911;DHT22;6523;49.758;6.120;2022-10-16T14:08:25;18.00;99.90
12911;DHT22;6523;49.758;6.120;2022-10-16T14:10:55;18.10;99.90
12911;DHT22;6523;49.758;6.120;2022-10-16T14:13:47;18.20;99.90
12911;DHT22;6523;49.758;6.120;2022-10-16T14:16:25;18.20;99.90
12911;DHT22;6523;49.758;6.120;2022-10-16T14:19:03;18.10;99.90
12911;DHT22;6523;49.758;6.120;2022-10-16T14:21:32;18.10;99.90
12911;DHT22;6523;49.758;6.120;2022-10-16T14:23:58;18.00;99.90
12911;DHT22;6523;49.758;6.120;2022-10-16T14:26:27;18.10;99.90
12911;DHT22;6523;49.758;6.120;2022-10-16T14:29:23;18.00;99.90
12911;DHT22;6523;49.758;6.120;2022-10-16T14:31:57;18.00;99.90
12911;DHT22;6523;49.758;6.120;2022-10-16T14:34:32;18.00;99.90
12911;DHT22;6523;49.758;6.120;2022-10-16T14:37:09;18.00;99.90
12911;DHT22;6523;49.758;6.120;2022-10-16T14:39:39;17.90;99.90
12911;DHT22;6523;49.758;6.120;2022-10-16T14:42:14;17.90;99.90
12911;DHT22;6523;49.758;6.120;2022-10-16T14:44:41;17.90;99.90
12911;DHT22;6523;49.758;6.120;2022-10-16T14:47:13;17.90;99.90
12911;DHT22;6523;49.758;6.120;2022-10-16T14:49:42;17.90;99.90
12911;DHT22;6523;49.758;6.120;2022-10-16T14:52:12;17.90;99.90
12911;DHT22;6523;49.758;6.120;2022-10-16T14:54:37;18.00;99.90
12911;DHT22;6523;49.758;6.120;2022-10-16T14:57:03;18.00;99.90
12911;DHT22;6523;49.758;6.120;2022-10-16T14:59:36;18.00;99.90
12911;DHT22;6523;49.758;6.120;2022-10-16T15:04:43;18.20;99.90
12911;DHT22;6523;49.758;6.120;2022-10-16T15:07:09;18.40;99.90
12911;DHT22;6523;49.758;6.120;2022-10-16T15:09:34;18.40;99.90
12911;DHT22;6523;49.758;6.120;2022-10-16T15:12:00;18.40;99.90
12911;DHT22;6523;49.758;6.120;2022-10-16T15:14:25;18.30;99.90
12911;DHT22;6523;49.758;6.120;2022-10-16T15:16:51;18.20;99.90
12911;DHT22;6523;49.758;6.120;2022-10-16T15:19:16;18.10;99.90
12911;DHT22;6523;49.758;6.120;2022-10-16T15:21:42;18.00;99.90
12911;DHT22;6523;49.758;6.120;2022-10-16T15:24:12;18.00;99.90
12911;DHT22;6523;49.758;6.120;2022-10-16T15:26:38;17.90;99.90
12911;DHT22;6523;49.758;6.120;2022-10-16T15:29:04;18.00;99.90
12911;DHT22;6523;49.758;6.120;2022-10-16T15:31:30;17.80;99.90
12911;DHT22;6523;49.758;6.120;2022-10-16T15:33:56;17.90;99.90
12911;DHT22;6523;49.758;6.120;2022-10-16T15:36:35;17.80;99.90
12911;DHT22;6523;49.758;6.120;2022-10-16T15:39:16;17.90;99.90
12911;DHT22;6523;49.758;6.120;2022-10-16T15:41:42;17.80;99.90
12911;DHT22;6523;49.758;6.120;2022-10-16T15:44:09;17.70;99.90
12911;DHT22;6523;49.758;6.120;2022-10-16T15:46:34;17.70;99.90
12911;DHT22;6523;49.758;6.120;2022-10-16T15:49:01;17.70;99.90
12911;DHT22;6523;49.758;6.120;2022-10-16T15:51:27;17.60;99.90
12911;DHT22;6523;49.758;6.120;2022-10-16T15:53:56;17.60;99.90
12911;DHT22;6523;49.758;6.120;2022-10-16T15:56:22;17.60;99.90
12911;DHT22;6523;49.758;6.120;2022-10-16T15:58:49;17.70;99.90
12911;DHT22;6523;49.758;6.120;2022-10-16T16:01:15;17.60;99.90
12911;DHT22;6523;49.758;6.120;2022-10-16T16:03:41;17.60;99.90
12911;DHT22;6523;49.758;6.120;2022-10-16T16:06:10;17.60;99.90
12911;DHT22;6523;49.758;6.120;2022-10-16T16:08:36;17.50;99.90
12911;DHT22;6523;49.758;6.120;2022-10-16T16:11:05;17.50;99.90
12911;DHT22;6523;49.758;6.120;2022-10-16T16:13:31;17.40;99.90
12911;DHT22;6523;49.758;6.120;2022-10-16T16:15:56;17.30;99.90
12911;DHT22;6523;49.758;6.120;2022-10-16T16:18:22;17.20;99.90
12911;DHT22;6523;49.758;6.120;2022-10-16T16:20:49;17.10;99.90
12911;DHT22;6523;49.758;6.120;2022-10-16T16:23:15;16.90;99.90
12911;DHT22;6523;49.758;6.120;2022-10-16T16:25:41;16.80;99.90
12911;DHT22;6523;49.758;6.120;2022-10-16T16:28:07;16.80;99.90
12911;DHT22;6523;49.758;6.120;2022-10-16T16:30:32;16.80;99.90
12911;DHT22;6523;49.758;6.120;2022-10-16T16:32:58;16.70;99.90
12911;DHT22;6523;49.758;6.120;2022-10-16T16:35:23;16.70;99.90
12911;DHT22;6523;49.758;6.120;2022-10-16T16:37:49;16.60;99.90
12911;DHT22;6523;49.758;6.120;2022-10-16T16:40:15;16.50;99.90
12911;DHT22;6523;49.758;6.120;2022-10-16T16:42:40;16.40;99.90
12911;DHT22;6523;49.758;6.120;2022-10-16T16:45:06;16.30;99.90
12911;DHT22;6523;49.758;6.120;2022-10-16T16:47:32;16.20;99.90
12911;DHT22;6523;49.758;6.120;2022-10-16T16:49:58;16.00;99.90
12911;DHT22;6523;49.758;6.120;2022-10-16T16:52:23;15.80;99.90
12911;DHT22;6523;49.758;6.120;2022-10-16T16:54:49;15.80;99.90
12911;DHT22;6523;49.758;6.120;2022-10-16T16:57:20;15.90;99.90
12911;DHT22;6523;49.758;6.120;2022-10-16T16:59:46;15.90;99.90
12911;DHT22;6523;49.758;6.120;2022-10-16T17:02:12;16.00;99.90
12911;DHT22;6523;49.758;6.120;2022-10-16T17:04:37;16.00;99.90
12911;DHT22;6523;49.758;6.120;2022-10-16T17:07:03;15.90;99.90
12911;DHT22;6523;49.758;6.120;2022-10-16T17:09:31;15.90;99.90
12911;DHT22;6523;49.758;6.120;2022-10-16T17:11:56;16.30;99.90
12911;DHT22;6523;49.758;6.120;2022-10-16T17:14:22;16.20;99.90
12911;DHT22;6523;49.758;6.120;2022-10-16T17:16:48;16.10;99.90
12911;DHT22;6523;49.758;6.120;2022-10-16T17:19:17;16.10;99.90
12911;DHT22;6523;49.758;6.120;2022-10-16T17:21:43;15.90;99.90
12911;DHT22;6523;49.758;6.120;2022-10-16T17:24:08;15.80;99.90
12911;DHT22;6523;49.758;6.120;2022-10-16T17:26:35;15.80;99.90
12911;DHT22;6523;49.758;6.120;2022-10-16T17:29:06;15.60;99.90
12911;DHT22;6523;49.758;6.120;2022-10-16T17:31:34;15.50;99.90
12911;DHT22;6523;49.758;6.120;2022-10-16T17:34:00;15.40;99.90
12911;DHT22;6523;49.758;6.120;2022-10-16T17:36:26;15.50;99.90
12911;DHT22;6523;49.758;6.120;2022-10-16T17:39:00;15.50;99.90
12911;DHT22;6523;49.758;6.120;2022-10-16T17:41:29;15.60;99.90
12911;DHT22;6523;49.758;6.120;2022-10-16T17:43:55;15.80;99.90
12911;DHT22;6523;49.758;6.120;2022-10-16T17:46:21;16.00;99.90
12911;DHT22;6523;49.758;6.120;2022-10-16T17:48:50;15.90;99.90
12911;DHT22;6523;49.758;6.120;2022-10-16T17:51:20;15.40;99.90
12911;DHT22;6523;49.758;6.120;2022-10-16T17:53:54;15.50;99.90
12911;DHT22;6523;49.758;6.120;2022-10-16T17:56:21;15.50;99.90